Time;durP1;ratioP1;P1;durP2;ratioP2;P2;SDS_P1;SDS_P2;PMS_P1;PMS_P2;Temp;Humidity;BMP_temperature;BMP_pressure;BME280_temperature;BME280_humidity;BME280_pressure;Samples;Min_cycle;Max_cycle;Signal;HPM_P1;HPM_P2
2021/05/20 00:02:20;;;;;;;1999.90;999.90;;;8.40;99.90;;;;;;5076410;28;20234;-82
2021/05/20 00:04:46;;;;;;;1999.90;999.90;;;8.30;99.90;;;;;;5075393;28;20174;-81
2021/05/20 00:07:12;;;;;;;1999.90;999.90;;;8.20;99.90;;;;;;5058299;28;20177;-82
2021/05/20 00:09:37;;;;;;;1999.90;999.90;;;8.20;99.90;;;;;;5058176;28;20173;-82
2021/05/20 00:12:03;;;;;;;1999.90;999.90;;;8.20;99.90;;;;;;5057622;28;20177;-82
2021/05/20 00:14:29;;;;;;;1999.90;999.90;;;8.20;99.90;;;;;;5065334;28;20195;-81
2021/05/20 00:16:55;;;;;;;1999.90;999.90;;;8.20;99.90;;;;;;5061529;28;20184;-82
2021/05/20 00:19:22;;;;;;;1999.90;999.90;;;8.30;99.90;;;;;;5060541;28;20639;-82
2021/05/20 00:21:48;;;;;;;1999.90;999.90;;;8.20;99.90;;;;;;5079050;28;20173;-82
2021/05/20 00:24:14;;;;;;;1999.90;999.90;;;8.10;99.90;;;;;;5078963;28;20168;-83
2021/05/20 00:26:39;;;;;;;1999.90;999.90;;;8.00;99.90;;;;;;5060614;28;20201;-83
2021/05/20 00:29:05;;;;;;;1999.90;999.90;;;8.00;99.90;;;;;;5078895;28;20188;-82
2021/05/20 00:31:31;;;;;;;1999.90;999.90;;;8.00;99.90;;;;;;5078792;28;20697;-83
2021/05/20 00:33:57;;;;;;;1999.90;999.90;;;8.00;99.90;;;;;;5078563;28;20204;-82
2021/05/20 00:36:23;;;;;;;1999.90;999.90;;;8.00;99.90;;;;;;5078967;28;20199;-82
2021/05/20 00:38:48;;;;;;;1999.90;999.90;;;8.00;99.90;;;;;;5079379;28;20236;-82
2021/05/20 00:41:14;;;;;;;1999.90;999.90;;;8.10;99.90;;;;;;5078544;28;20674;-82
2021/05/20 00:43:40;;;;;;;1999.90;999.90;;;8.40;99.90;;;;;;5060400;28;20671;-82
2021/05/20 00:46:07;;;;;;;1999.90;999.90;;;8.20;99.90;;;;;;5059743;28;20216;-82
2021/05/20 00:48:33;;;;;;;1999.90;999.90;;;8.10;99.90;;;;;;5079407;28;20173;-82
2021/05/20 00:50:58;;;;;;;1999.90;999.90;;;8.10;99.90;;;;;;5078520;28;20177;-82
2021/05/20 00:53:24;;;;;;;1999.90;999.90;;;8.10;99.90;;;;;;5078411;28;20285;-82
2021/05/20 00:55:51;;;;;;;1999.90;999.90;;;8.00;99.90;;;;;;5078161;28;20230;-82
2021/05/20 00:58:17;;;;;;;1999.90;999.90;;;8.20;99.90;;;;;;5060627;28;20189;-82
2021/05/20 01:00:43;;;;;;;1999.90;999.90;;;7.90;99.90;;;;;;5059840;28;20543;-82
2021/05/20 01:03:10;;;;;;;1999.90;999.90;;;7.90;99.90;;;;;;5063980;28;20173;-82
2021/05/20 01:05:36;;;;;;;1999.90;999.90;;;7.90;99.90;;;;;;5077503;28;20291;-82
2021/05/20 01:08:01;;;;;;;1999.90;999.90;;;7.80;99.90;;;;;;5059422;28;20225;-83
2021/05/20 01:10:27;;;;;;;1999.90;999.90;;;7.80;99.90;;;;;;5059361;28;20197;-83
2021/05/20 01:12:53;;;;;;;1999.90;999.90;;;7.80;99.90;;;;;;5077877;28;20251;-84
2021/05/20 01:15:26;;;;;;;1999.90;999.90;;;7.90;99.90;;;;;;5077231;28;20189;-82
2021/05/20 01:17:57;;;;;;;1999.90;999.90;;;7.90;99.90;;;;;;5077293;28;20229;-82
2021/05/20 01:20:24;;;;;;;1999.90;999.90;;;7.90;99.90;;;;;;5059328;28;20169;-82
2021/05/20 01:22:50;;;;;;;1999.90;999.90;;;7.90;99.90;;;;;;5059144;28;20254;-83
2021/05/20 01:25:16;;;;;;;1999.90;999.90;;;8.00;99.90;;;;;;5077007;28;20197;-83
2021/05/20 01:27:44;;;;;;;1999.90;999.90;;;8.00;99.90;;;;;;5077220;28;20598;-82
2021/05/20 01:30:11;;;;;;;1999.90;999.90;;;8.10;99.90;;;;;;5076480;28;20176;-82
2021/05/20 01:32:37;;;;;;;1999.90;999.90;;;8.10;99.90;;;;;;5077052;28;20203;-82
2021/05/20 01:35:05;;;;;;;1999.90;999.90;;;8.10;99.90;;;;;;5059216;28;20165;-82
2021/05/20 01:37:30;;;;;;;1999.90;999.90;;;8.00;99.90;;;;;;5058867;28;20252;-82
2021/05/20 01:39:56;;;;;;;1999.90;999.90;;;8.20;99.90;;;;;;5077713;28;20193;-82
2021/05/20 01:42:22;;;;;;;1999.90;999.90;;;8.10;99.90;;;;;;5076182;28;20260;-82
2021/05/20 01:44:47;;;;;;;1999.90;999.90;;;8.10;99.90;;;;;;5076896;28;20173;-80
2021/05/20 01:47:13;;;;;;;1999.90;999.90;;;8.00;99.90;;;;;;5058952;28;20430;-82
2021/05/20 01:49:39;;;;;;;1999.90;999.90;;;8.00;99.90;;;;;;5052062;28;20174;-81
2021/05/20 01:52:05;;;;;;;1999.90;999.90;;;7.90;99.90;;;;;;5045989;28;20180;-81
2021/05/20 01:54:30;;;;;;;1999.90;999.90;;;7.90;99.90;;;;;;5067324;28;20174;-82
2021/05/20 01:56:56;;;;;;;1999.90;999.90;;;7.90;99.90;;;;;;5059758;28;20200;-82
2021/05/20 01:59:21;;;;;;;1999.90;999.90;;;8.00;99.90;;;;;;5056431;28;20197;-80
2021/05/20 02:01:47;;;;;;;1999.90;999.90;;;8.10;99.90;;;;;;5059836;28;20177;-81
2021/05/20 02:04:13;;;;;;;1999.90;999.90;;;8.10;99.90;;;;;;5065069;28;20169;-81
2021/05/20 02:06:38;;;;;;;1999.90;999.90;;;8.10;99.90;;;;;;5054330;28;20245;-82
2021/05/20 02:09:05;;;;;;;1999.90;999.90;;;8.10;99.90;;;;;;5058106;28;20192;-81
2021/05/20 02:11:31;;;;;;;1999.90;999.90;;;8.10;99.90;;;;;;5055890;28;20170;-82
2021/05/20 02:13:57;;;;;;;1999.90;999.90;;;8.20;99.90;;;;;;5070721;28;20196;-81
2021/05/20 02:16:23;;;;;;;1999.90;999.90;;;8.20;99.90;;;;;;5059744;28;20284;-82
2021/05/20 02:18:48;;;;;;;1999.90;999.90;;;8.20;99.90;;;;;;5063880;28;20257;-81
2021/05/20 02:21:14;;;;;;;1999.90;999.90;;;8.30;99.90;;;;;;5063911;28;20650;-81
2021/05/20 02:23:39;;;;;;;1999.90;999.90;;;8.40;99.90;;;;;;5067829;28;20177;-82
2021/05/20 02:26:05;;;;;;;1999.90;999.90;;;8.40;99.90;;;;;;5065632;28;20205;-82
2021/05/20 02:28:31;;;;;;;1999.90;999.90;;;8.40;99.90;;;;;;5063614;28;20256;-82
2021/05/20 02:30:57;;;;;;;1999.90;999.90;;;8.20;99.90;;;;;;5047782;28;20177;-82
2021/05/20 02:33:22;;;;;;;1999.90;999.90;;;8.20;99.90;;;;;;5067523;28;20276;-82
2021/05/20 02:35:48;;;;;;;1999.90;999.90;;;8.20;99.90;;;;;;5062954;28;20248;-82
2021/05/20 02:38:14;;;;;;;1999.90;999.90;;;8.20;99.90;;;;;;5070345;28;20164;-81
2021/05/20 02:40:39;;;;;;;1999.90;999.90;;;8.30;99.90;;;;;;5042830;28;20222;-81
2021/05/20 02:43:05;;;;;;;1999.90;999.90;;;8.40;99.90;;;;;;5069708;28;20196;-81
2021/05/20 02:45:31;;;;;;;1999.90;999.90;;;8.40;99.90;;;;;;5072393;28;20197;-82
2021/05/20 02:47:57;;;;;;;1999.90;999.90;;;8.30;99.90;;;;;;5073650;28;20173;-81
2021/05/20 02:50:24;;;;;;;1999.90;999.90;;;8.40;99.90;;;;;;5059837;28;20173;-81
2021/05/20 02:52:50;;;;;;;1999.90;999.90;;;8.40;99.90;;;;;;5068710;28;20187;-82
2021/05/20 02:55:18;;;;;;;1999.90;999.90;;;8.30;99.90;;;;;;5079871;28;20221;-81
2021/05/20 02:57:53;;;;;;;1999.90;999.90;;;8.20;99.90;;;;;;5074521;28;20674;-81
2021/05/20 03:00:19;;;;;;;1999.90;999.90;;;8.10;99.90;;;;;;5066004;28;20188;-81
2021/05/20 03:02:49;;;;;;;1999.90;999.90;;;8.10;99.90;;;;;;5050858;28;20211;-82
2021/05/20 03:05:16;;;;;;;1999.90;999.90;;;8.10;99.90;;;;;;5052968;28;20193;-81
2021/05/20 03:07:42;;;;;;;1999.90;999.90;;;8.00;99.90;;;;;;5058299;28;20184;-81
2021/05/20 03:10:08;;;;;;;1999.90;999.90;;;8.00;99.90;;;;;;5074677;28;20561;-81
2021/05/20 03:12:34;;;;;;;1999.90;999.90;;;8.00;99.90;;;;;;5065299;28;20710;-81
2021/05/20 03:15:00;;;;;;;1999.90;999.90;;;8.00;99.90;;;;;;5073593;28;20647;-81
2021/05/20 03:17:26;;;;;;;1999.90;999.90;;;8.00;99.90;;;;;;5076949;28;20183;-81
2021/05/20 03:19:52;;;;;;;1999.90;999.90;;;7.90;99.90;;;;;;5077993;28;20173;-81
2021/05/20 03:22:18;;;;;;;1999.90;999.90;;;8.00;99.90;;;;;;5072810;28;20204;-81
2021/05/20 03:24:44;;;;;;;1999.90;999.90;;;8.00;99.90;;;;;;5053859;28;20166;-81
2021/05/20 03:27:10;;;;;;;1999.90;999.90;;;8.10;99.90;;;;;;5056563;28;20242;-81
2021/05/20 03:29:35;;;;;;;1999.90;999.90;;;8.10;99.90;;;;;;5077063;28;20264;-82
2021/05/20 03:32:01;;;;;;;1999.90;999.90;;;8.20;99.90;;;;;;5083899;28;20258;-81
2021/05/20 03:34:27;;;;;;;1999.90;999.90;;;8.30;99.90;;;;;;5071216;28;20284;-81
2021/05/20 03:36:53;;;;;;;1999.90;999.90;;;8.30;99.90;;;;;;5054341;28;20662;-81
2021/05/20 03:39:19;;;;;;;1999.90;999.90;;;8.30;99.90;;;;;;5068471;28;20578;-82
2021/05/20 03:41:45;;;;;;;1999.90;999.90;;;8.40;99.90;;;;;;5049260;28;20232;-81
2021/05/20 03:44:10;;;;;;;1999.90;999.90;;;8.40;99.90;;;;;;5047116;28;20589;-81
2021/05/20 03:46:36;;;;;;;1999.90;999.90;;;8.40;99.90;;;;;;5058930;28;20196;-81
2021/05/20 03:49:03;;;;;;;1999.90;999.90;;;8.40;99.90;;;;;;5041854;28;20182;-81
2021/05/20 03:51:29;;;;;;;1999.90;999.90;;;8.50;99.90;;;;;;5043442;28;20687;-82
2021/05/20 03:53:54;;;;;;;1999.90;999.90;;;8.50;99.90;;;;;;5045379;28;20203;-81
2021/05/20 03:56:20;;;;;;;1999.90;999.90;;;8.50;99.90;;;;;;5058300;28;20233;-81
2021/05/20 03:58:46;;;;;;;1999.90;999.90;;;8.50;99.90;;;;;;5048635;28;20180;-83
2021/05/20 04:01:12;;;;;;;1999.90;999.90;;;8.40;99.90;;;;;;5065530;28;20178;-81
2021/05/20 04:03:37;;;;;;;1999.90;999.90;;;8.40;99.90;;;;;;5062799;28;20214;-83
2021/05/20 04:06:04;;;;;;;1999.90;999.90;;;8.40;99.90;;;;;;5069030;28;20263;-82
2021/05/20 04:08:30;;;;;;;1999.90;999.90;;;8.40;99.90;;;;;;5044975;28;20700;-82
2021/05/20 04:10:56;;;;;;;1999.90;999.90;;;8.50;99.90;;;;;;5045495;28;20185;-82
2021/05/20 04:13:30;;;;;;;1999.90;999.90;;;8.50;99.90;;;;;;5069256;28;20201;-82
2021/05/20 04:15:56;;;;;;;1999.90;999.90;;;8.50;99.90;;;;;;5071660;28;20189;-82
2021/05/20 04:18:22;;;;;;;1999.90;999.90;;;8.50;99.90;;;;;;5054767;28;20166;-81
2021/05/20 04:20:49;;;;;;;1999.90;999.90;;;8.50;99.90;;;;;;5068528;28;20176;-80
2021/05/20 04:23:15;;;;;;;1999.90;999.90;;;8.50;99.90;;;;;;5053462;28;20188;-80
2021/05/20 04:25:42;;;;;;;1999.90;999.90;;;8.60;99.90;;;;;;5059651;28;20200;-80
2021/05/20 04:28:07;;;;;;;1999.90;999.90;;;8.50;99.90;;;;;;5065118;28;20179;-81
2021/05/20 04:30:34;;;;;;;1999.90;999.90;;;8.40;99.90;;;;;;5067238;28;20180;-80
2021/05/20 04:32:59;;;;;;;1999.90;999.90;;;8.40;99.90;;;;;;5070381;23;20218;-78
2021/05/20 04:35:25;;;;;;;1999.90;999.90;;;8.40;99.90;;;;;;5034534;28;20193;-78
2021/05/20 04:37:51;;;;;;;1999.90;999.90;;;8.40;99.90;;;;;;5033409;28;20539;-78
2021/05/20 04:40:16;;;;;;;1999.90;999.90;;;8.40;99.90;;;;;;5017839;28;20178;-78
2021/05/20 04:42:42;;;;;;;1999.90;999.90;;;8.40;99.90;;;;;;5016888;28;20668;-78
2021/05/20 04:45:08;;;;;;;1999.90;999.90;;;8.50;99.90;;;;;;5034110;28;20210;-78
2021/05/20 04:47:34;;;;;;;1999.90;999.90;;;8.50;99.90;;;;;;5034095;28;20213;-78
2021/05/20 04:49:59;;;;;;;1999.90;999.90;;;8.50;99.90;;;;;;5035359;28;20170;-78
2021/05/20 04:52:25;;;;;;;1999.90;999.90;;;8.50;99.90;;;;;;5033520;28;20672;-78
2021/05/20 04:54:51;;;;;;;1999.90;999.90;;;8.60;99.90;;;;;;5033645;28;20175;-78
2021/05/20 04:57:16;;;;;;;1999.90;999.90;;;8.60;99.90;;;;;;5033523;28;20186;-78
2021/05/20 04:59:42;;;;;;;1999.90;999.90;;;8.50;99.90;;;;;;5017261;28;20182;-78
2021/05/20 05:02:07;;;;;;;1999.90;999.90;;;8.50;99.90;;;;;;5034979;28;20177;-78
2021/05/20 05:04:33;;;;;;;1999.90;999.90;;;8.60;99.90;;;;;;5034934;28;20195;-78
2021/05/20 05:06:59;;;;;;;1999.90;999.90;;;8.60;99.90;;;;;;5017319;28;20234;-79
2021/05/20 05:09:24;;;;;;;1999.90;999.90;;;8.50;99.90;;;;;;5016236;28;20181;-79
2021/05/20 05:11:50;;;;;;;1999.90;999.90;;;8.50;99.90;;;;;;5035170;28;20281;-78
2021/05/20 05:14:16;;;;;;;1999.90;999.90;;;8.50;99.90;;;;;;5035214;28;20206;-78
2021/05/20 05:16:41;;;;;;;1999.90;999.90;;;8.40;99.90;;;;;;5016589;28;20164;-78
2021/05/20 05:19:07;;;;;;;1999.90;999.90;;;8.40;99.90;;;;;;5033289;28;20175;-78
2021/05/20 05:21:33;;;;;;;1999.90;999.90;;;8.40;99.90;;;;;;5033497;28;20170;-78
2021/05/20 05:23:59;;;;;;;1999.90;999.90;;;8.50;99.90;;;;;;5033342;28;20202;-79
2021/05/20 05:26:24;;;;;;;1999.90;999.90;;;8.60;99.90;;;;;;5033956;28;20185;-78
2021/05/20 05:28:50;;;;;;;1999.90;999.90;;;8.60;99.90;;;;;;5034239;28;20189;-78
2021/05/20 05:31:20;;;;;;;1999.90;999.90;;;8.60;99.90;;;;;;5016585;28;20181;-78
2021/05/20 05:33:46;;;;;;;1999.90;999.90;;;8.50;99.90;;;;;;5036486;28;20313;-81
2021/05/20 05:36:11;;;;;;;1999.90;999.90;;;8.50;99.90;;;;;;5035948;28;20662;-82
2021/05/20 05:38:37;;;;;;;1999.90;999.90;;;8.50;99.90;;;;;;5018051;28;20170;-81
2021/05/20 05:41:03;;;;;;;1999.90;999.90;;;8.40;99.90;;;;;;5018623;28;20192;-81
2021/05/20 05:43:29;;;;;;;1999.90;999.90;;;8.40;99.90;;;;;;5019194;28;20198;-82
2021/05/20 05:45:54;;;;;;;1999.90;999.90;;;8.50;99.90;;;;;;5020457;28;20186;-82
2021/05/20 05:48:20;;;;;;;1999.90;999.90;;;8.40;99.90;;;;;;5037542;28;20178;-82
2021/05/20 05:50:47;;;;;;;1999.90;999.90;;;8.40;99.90;;;;;;5037124;28;20267;-82
2021/05/20 05:53:13;;;;;;;1999.90;999.90;;;8.50;99.90;;;;;;5020172;28;20198;-83
2021/05/20 05:55:38;;;;;;;1999.90;999.90;;;8.50;99.90;;;;;;5038351;28;20245;-83
2021/05/20 05:58:04;;;;;;;1999.90;999.90;;;8.50;99.90;;;;;;5037851;28;20195;-83
2021/05/20 06:00:30;;;;;;;1999.90;999.90;;;8.60;99.90;;;;;;5038253;28;20189;-81
2021/05/20 06:52:54;;;;;;;1999.90;999.90;;;9.20;99.90;;;;;;5053186;28;20236;-83
2021/05/20 06:55:21;;;;;;;1999.90;999.90;;;9.30;99.90;;;;;;5041878;28;20180;-84
2021/05/20 07:00:37;;;;;;;1999.90;999.90;;;9.30;99.90;;;;;;5045286;28;20209;-83
2021/05/20 07:03:14;;;;;;;1999.90;999.90;;;9.40;99.90;;;;;;5059105;22;20198;-84
2021/05/20 07:05:42;;;;;;;1999.90;999.90;;;9.50;99.90;;;;;;5006283;28;20176;-84
2021/05/20 07:08:11;;;;;;;1999.90;999.90;;;9.40;99.90;;;;;;5002930;28;20187;-85
2021/05/20 07:10:39;;;;;;;1999.90;999.90;;;9.50;99.90;;;;;;5000090;28;20549;-85
2021/05/20 07:13:07;;;;;;;1999.90;999.90;;;9.70;99.90;;;;;;5000437;28;20203;-85
2021/05/20 07:15:36;;;;;;;1999.90;999.90;;;9.90;99.90;;;;;;4984570;28;20185;-84
2021/05/20 07:18:08;;;;;;;1999.90;999.90;;;10.00;99.90;;;;;;5001354;28;20176;-85
2021/05/20 07:20:41;;;;;;;1999.90;999.90;;;10.00;99.90;;;;;;4991687;28;20203;-85
2021/05/20 07:23:11;;;;;;;1999.90;999.90;;;10.20;99.90;;;;;;4995533;28;20235;-83
2021/05/20 07:25:51;;;;;;;1999.90;999.90;;;10.30;99.90;;;;;;4993034;28;20219;-84
2021/05/20 07:28:16;;;;;;;1999.90;999.90;;;10.10;99.90;;;;;;5001997;28;20183;-84
2021/05/20 07:30:50;;;;;;;1999.90;999.90;;;10.10;99.90;;;;;;5002245;28;20168;-84
2021/05/20 07:33:27;;;;;;;1999.90;999.90;;;10.00;99.90;;;;;;5002093;28;20191;-84
2021/05/20 07:35:53;;;;;;;1999.90;999.90;;;10.30;99.90;;;;;;4999688;28;20653;-84
2021/05/20 07:38:19;;;;;;;1999.90;999.90;;;10.20;99.90;;;;;;4996604;28;20190;-84
2021/05/20 07:40:44;;;;;;;1999.90;999.90;;;10.20;99.90;;;;;;5004324;28;20258;-83
2021/05/20 07:43:10;;;;;;;1999.90;999.90;;;10.20;99.90;;;;;;4997199;28;20241;-86
2021/05/20 07:45:36;;;;;;;1999.90;999.90;;;10.10;99.90;;;;;;5001921;28;20179;-84
2021/05/20 07:48:04;;;;;;;1999.90;999.90;;;10.20;99.90;;;;;;4996763;28;20306;-84
2021/05/20 07:50:32;;;;;;;1999.90;999.90;;;10.30;99.90;;;;;;5001923;28;20187;-86
2021/05/20 07:52:58;;;;;;;1999.90;999.90;;;10.40;99.90;;;;;;4998414;28;20184;-85
2021/05/20 07:55:24;;;;;;;1999.90;999.90;;;10.50;99.90;;;;;;5001412;28;20263;-84
2021/05/20 07:57:53;;;;;;;1999.90;999.90;;;10.40;99.90;;;;;;5003772;28;20184;-86
2021/05/20 08:00:19;;;;;;;1999.90;999.90;;;10.50;99.90;;;;;;4995760;28;20172;-83
2021/05/20 08:02:52;;;;;;;1999.90;999.90;;;10.60;99.90;;;;;;5005535;28;20233;-85
2021/05/20 08:12:41;;;;;;;1999.90;999.90;;;10.70;99.90;;;;;;5006244;28;20172;-84
2021/05/20 08:15:08;;;;;;;1999.90;999.90;;;10.80;99.90;;;;;;5002626;28;20584;-85
2021/05/20 08:17:34;;;;;;;1999.90;999.90;;;10.90;99.90;;;;;;5004481;28;20187;-84
2021/05/20 08:19:59;;;;;;;1999.90;999.90;;;11.20;99.90;;;;;;5005711;28;20171;-84
2021/05/20 08:22:25;;;;;;;1999.90;999.90;;;11.30;99.90;;;;;;5003269;28;20176;-84
2021/05/20 08:24:53;;;;;;;1999.90;999.90;;;11.50;99.90;;;;;;5006246;28;20207;-86
2021/05/20 08:27:19;;;;;;;1999.90;999.90;;;11.70;99.90;;;;;;5001140;28;20222;-84
2021/05/20 08:29:45;;;;;;;1999.90;999.90;;;11.90;99.90;;;;;;4994958;28;20180;-84
2021/05/20 08:32:11;;;;;;;1999.90;999.90;;;11.80;99.90;;;;;;5003383;28;20556;-85
2021/05/20 08:34:37;;;;;;;1999.90;999.90;;;11.50;99.90;;;;;;4991264;28;20205;-83
2021/05/20 08:37:03;;;;;;;1999.90;999.90;;;11.40;99.90;;;;;;5004746;28;20259;-85
2021/05/20 08:39:29;;;;;;;1999.90;999.90;;;11.40;99.90;;;;;;5004494;28;20201;-84
2021/05/20 08:41:55;;;;;;;1999.90;999.90;;;11.40;99.90;;;;;;5007681;28;20205;-85
2021/05/20 08:44:25;;;;;;;1999.90;999.90;;;11.30;99.90;;;;;;5005183;28;20242;-84
2021/05/20 08:46:57;;;;;;;1999.90;999.90;;;11.30;99.90;;;;;;5007635;28;20207;-85
2021/05/20 08:49:23;;;;;;;1999.90;999.90;;;11.40;99.90;;;;;;5004320;28;20183;-84
2021/05/20 08:51:49;;;;;;;1999.90;999.90;;;11.30;99.90;;;;;;5003137;28;20168;-84
2021/05/20 08:54:16;;;;;;;1999.90;999.90;;;11.20;99.90;;;;;;5001297;28;20695;-85
2021/05/20 08:56:46;;;;;;;1999.90;999.90;;;11.10;99.90;;;;;;5002250;28;20178;-84
2021/05/20 08:59:13;;;;;;;1999.90;999.90;;;11.20;99.90;;;;;;5005757;28;20238;-85
2021/05/20 09:01:40;;;;;;;1999.90;999.90;;;11.40;99.90;;;;;;5005689;28;20225;-85
2021/05/20 09:04:07;;;;;;;1999.90;999.90;;;11.70;99.90;;;;;;5005660;28;20235;-85
2021/05/20 09:06:49;;;;;;;1999.90;999.90;;;11.90;99.90;;;;;;4995812;28;20658;-85
2021/05/20 09:09:18;;;;;;;1999.90;999.90;;;11.70;99.90;;;;;;5002463;28;20166;-84
2021/05/20 09:11:50;;;;;;;1999.90;999.90;;;11.20;99.90;;;;;;5002545;28;20184;-84
2021/05/20 09:14:32;;;;;;;1999.90;999.90;;;11.00;99.90;;;;;;4995272;28;20197;-85
2021/05/20 09:17:11;;;;;;;1999.90;999.90;;;10.90;99.90;;;;;;5004444;28;20721;-84
2021/05/20 09:19:37;;;;;;;1999.90;999.90;;;10.80;99.90;;;;;;5011482;28;20183;-84
2021/05/20 09:22:05;;;;;;;1999.90;999.90;;;10.70;99.90;;;;;;4991912;28;20191;-84
2021/05/20 09:24:48;;;;;;;1999.90;999.90;;;10.80;99.90;;;;;;5002257;28;20203;-84
2021/05/20 09:27:31;;;;;;;1999.90;999.90;;;11.00;99.90;;;;;;5003062;28;20173;-84
2021/05/20 09:30:06;;;;;;;1999.90;999.90;;;10.90;99.90;;;;;;5004691;28;20540;-85
2021/05/20 09:32:40;;;;;;;1999.90;999.90;;;11.00;99.90;;;;;;5006786;28;20175;-84
2021/05/20 09:35:06;;;;;;;1999.90;999.90;;;11.10;99.90;;;;;;5003348;28;20195;-85
2021/05/20 09:37:43;;;;;;;1999.90;999.90;;;11.10;99.90;;;;;;5005332;28;20166;-84
2021/05/20 09:40:09;;;;;;;1999.90;999.90;;;11.20;99.90;;;;;;5002867;28;20176;-84
2021/05/20 09:42:35;;;;;;;1999.90;999.90;;;11.00;99.90;;;;;;5005231;28;20177;-85
2021/05/20 09:45:09;;;;;;;1999.90;999.90;;;10.80;99.90;;;;;;4995712;28;20199;-84
2021/05/20 09:47:36;;;;;;;1999.90;999.90;;;10.60;99.90;;;;;;4998333;28;20242;-85
2021/05/20 09:50:16;;;;;;;1999.90;999.90;;;10.50;99.90;;;;;;5015338;28;20173;-85
2021/05/20 09:52:42;;;;;;;1999.90;999.90;;;10.40;99.90;;;;;;5003270;28;20179;-85
2021/05/20 09:55:21;;;;;;;1999.90;999.90;;;10.40;99.90;;;;;;5000037;28;20211;-86
2021/05/20 09:57:47;;;;;;;1999.90;999.90;;;10.50;99.90;;;;;;5004131;28;20175;-85
2021/05/20 10:00:15;;;;;;;1999.90;999.90;;;10.60;99.90;;;;;;4998156;28;20251;-84
2021/05/20 10:02:42;;;;;;;1999.90;999.90;;;10.60;99.90;;;;;;5003994;28;20674;-85
2021/05/20 10:05:24;;;;;;;1999.90;999.90;;;10.50;99.90;;;;;;5004686;28;20671;-84
2021/05/20 10:07:51;;;;;;;1999.90;999.90;;;10.70;99.90;;;;;;4996828;28;20230;-85
2021/05/20 10:10:18;;;;;;;1999.90;999.90;;;10.70;99.90;;;;;;5005302;28;20199;-85
2021/05/20 10:12:47;;;;;;;1999.90;999.90;;;10.90;99.90;;;;;;5004477;28;20258;-85
2021/05/20 10:15:18;;;;;;;1999.90;999.90;;;11.20;99.90;;;;;;5005303;28;20231;-86
2021/05/20 10:17:45;;;;;;;1999.90;999.90;;;11.30;99.90;;;;;;5005299;28;20211;-85
2021/05/20 10:20:13;;;;;;;1999.90;999.90;;;11.40;99.90;;;;;;5005846;28;20226;-85
2021/05/20 10:22:39;;;;;;;1999.90;999.90;;;11.30;99.90;;;;;;5004843;28;20672;-86
2021/05/20 10:25:06;;;;;;;1999.90;999.90;;;11.40;99.90;;;;;;5004589;28;20196;-85
2021/05/20 10:27:34;;;;;;;1999.90;999.90;;;11.50;99.90;;;;;;5005459;28;20179;-86
2021/05/20 10:30:01;;;;;;;1999.90;999.90;;;11.60;99.90;;;;;;5003040;28;20181;-84
2021/05/20 10:32:28;;;;;;;1999.90;999.90;;;11.90;99.90;;;;;;5000643;28;20204;-84
2021/05/20 10:35:02;;;;;;;1999.90;999.90;;;11.90;99.90;;;;;;5002700;28;20188;-84
2021/05/20 10:37:37;;;;;;;1999.90;999.90;;;12.10;99.90;;;;;;5003849;28;20189;-85
2021/05/20 10:40:07;;;;;;;1999.90;999.90;;;12.20;99.90;;;;;;5004385;28;20174;-84
2021/05/20 10:42:37;;;;;;;1999.90;999.90;;;12.40;99.90;;;;;;5002659;28;20174;-87
2021/05/20 10:45:20;;;;;;;1999.90;999.90;;;12.60;99.90;;;;;;5005257;28;20196;-85
2021/05/20 10:48:04;;;;;;;1999.90;999.90;;;12.50;99.90;;;;;;5002015;28;20232;-85
2021/05/20 10:50:55;;;;;;;1999.90;999.90;;;12.60;99.90;;;;;;4999342;28;20270;-84
2021/05/20 10:54:06;;;;;;;1999.90;999.90;;;12.70;99.90;;;;;;5005234;28;20206;-82
2021/05/20 10:56:37;;;;;;;1999.90;999.90;;;12.70;99.90;;;;;;5000123;28;20239;-83
2021/05/20 10:59:37;;;;;;;1999.90;999.90;;;12.90;99.90;;;;;;5002728;28;20560;-84
2021/05/20 11:02:03;;;;;;;1999.90;999.90;;;13.10;99.90;;;;;;4998206;28;20188;-84
2021/05/20 11:04:38;;;;;;;1999.90;999.90;;;13.20;99.90;;;;;;5005956;28;20252;-84
2021/05/20 11:07:05;;;;;;;1999.90;999.90;;;13.10;99.90;;;;;;4994287;28;20197;-84
2021/05/20 11:09:51;;;;;;;1999.90;999.90;;;13.20;99.90;;;;;;5003763;28;20179;-82
2021/05/20 11:12:19;;;;;;;1999.90;999.90;;;13.30;99.90;;;;;;4998103;28;20262;-83
2021/05/20 11:14:46;;;;;;;1999.90;999.90;;;13.30;99.90;;;;;;5007419;28;20201;-82
2021/05/20 11:17:35;;;;;;;1999.90;999.90;;;13.40;99.90;;;;;;5003282;28;20208;-84
2021/05/20 11:20:26;;;;;;;1999.90;999.90;;;13.40;99.90;;;;;;5002757;28;20177;-83
2021/05/20 11:23:24;;;;;;;1999.90;999.90;;;13.40;99.90;;;;;;4988818;28;20596;-86
2021/05/20 11:26:04;;;;;;;1999.90;999.90;;;13.30;99.90;;;;;;5004583;28;20509;-83
2021/05/20 11:28:42;;;;;;;1999.90;999.90;;;13.30;99.90;;;;;;5008265;28;20172;-84
2021/05/20 11:31:09;;;;;;;1999.90;999.90;;;13.20;99.90;;;;;;4996546;28;20186;-84
2021/05/20 11:33:45;;;;;;;1999.90;999.90;;;12.90;99.90;;;;;;5004339;28;20233;-84
2021/05/20 11:36:13;;;;;;;1999.90;999.90;;;12.60;99.90;;;;;;5002125;28;20186;-84
2021/05/20 11:38:55;;;;;;;1999.90;999.90;;;12.50;99.90;;;;;;5010729;28;20185;-85
2021/05/20 11:41:21;;;;;;;1999.90;999.90;;;12.50;99.90;;;;;;5002485;28;20212;-85
2021/05/20 11:43:58;;;;;;;1999.90;999.90;;;12.30;99.90;;;;;;5008604;28;20240;-86
2021/05/20 11:46:24;;;;;;;1999.90;999.90;;;12.20;99.90;;;;;;4997670;28;20574;-85
2021/05/20 11:49:24;;;;;;;1999.90;999.90;;;12.00;99.90;;;;;;4996162;28;20200;-85
2021/05/20 11:52:02;;;;;;;1999.90;999.90;;;12.00;99.90;;;;;;5001125;28;20164;-85
2021/05/20 11:54:34;;;;;;;1999.90;999.90;;;11.90;99.90;;;;;;5008881;28;20212;-85
2021/05/20 11:57:05;;;;;;;1999.90;999.90;;;11.90;99.90;;;;;;5007608;28;20634;-85
2021/05/20 11:59:37;;;;;;;1999.90;999.90;;;11.80;99.90;;;;;;5006231;28;20646;-85
2021/05/20 12:02:04;;;;;;;1999.90;999.90;;;11.80;99.90;;;;;;5007732;28;20176;-86
2021/05/20 12:04:30;;;;;;;1999.90;999.90;;;11.90;99.90;;;;;;5003011;28;20212;-86
2021/05/20 12:06:56;;;;;;;1999.90;999.90;;;11.90;99.90;;;;;;5000663;28;20305;-85
2021/05/20 12:09:22;;;;;;;1999.90;999.90;;;11.90;99.90;;;;;;5006097;28;20186;-85
2021/05/20 12:11:49;;;;;;;1999.90;999.90;;;11.90;99.90;;;;;;5004771;28;20175;-85
2021/05/20 12:14:34;;;;;;;1999.90;999.90;;;12.00;99.90;;;;;;5008178;28;20212;-85
2021/05/20 12:17:08;;;;;;;1999.90;999.90;;;12.10;99.90;;;;;;5006678;28;20227;-86
2021/05/20 12:19:37;;;;;;;1999.90;999.90;;;12.10;99.90;;;;;;5008081;28;20665;-85
2021/05/20 12:22:27;;;;;;;1999.90;999.90;;;12.10;99.90;;;;;;5009310;28;20184;-84
2021/05/20 12:24:54;;;;;;;1999.90;999.90;;;12.20;99.90;;;;;;5007438;28;20676;-84
2021/05/20 12:27:43;;;;;;;1999.90;999.90;;;12.20;99.90;;;;;;5009966;28;20289;-85
2021/05/20 12:30:16;;;;;;;1999.90;999.90;;;12.30;99.90;;;;;;5005172;28;20183;-85
2021/05/20 12:32:53;;;;;;;1999.90;999.90;;;12.50;99.90;;;;;;5001834;28;20182;-86
2021/05/20 12:35:29;;;;;;;1999.90;999.90;;;12.60;99.90;;;;;;5005034;28;20185;-85
2021/05/20 12:38:11;;;;;;;1999.90;999.90;;;12.80;99.90;;;;;;5005008;28;20190;-86
2021/05/20 12:40:42;;;;;;;1999.90;999.90;;;13.00;99.90;;;;;;5007708;28;20285;-85
2021/05/20 12:43:17;;;;;;;1999.90;999.90;;;13.10;99.90;;;;;;5008688;28;20198;-85
2021/05/20 12:45:58;;;;;;;1999.90;999.90;;;13.10;99.90;;;;;;5008077;28;20189;-85
2021/05/20 12:48:37;;;;;;;1999.90;999.90;;;13.30;99.90;;;;;;5003414;28;20187;-85
2021/05/20 12:51:06;;;;;;;1999.90;999.90;;;13.30;99.90;;;;;;5008903;28;20180;-85
2021/05/20 12:53:38;;;;;;;1999.90;999.90;;;13.30;99.90;;;;;;5000196;28;20282;-85
2021/05/20 12:56:24;;;;;;;1999.90;999.90;;;13.30;99.90;;;;;;5007068;28;20190;-85
2021/05/20 12:59:08;;;;;;;1999.90;999.90;;;13.30;99.90;;;;;;5008461;28;20183;-85
2021/05/20 13:01:46;;;;;;;1999.90;999.90;;;13.30;99.90;;;;;;5007361;28;20214;-86
2021/05/20 13:04:17;;;;;;;1999.90;999.90;;;13.20;99.90;;;;;;5042549;22;20231;-82
2021/05/20 13:06:43;;;;;;;1999.90;999.90;;;13.00;99.90;;;;;;5035666;28;20168;-84
2021/05/20 13:09:11;;;;;;;1999.90;999.90;;;13.10;99.90;;;;;;5045247;28;20187;-84
2021/05/20 13:11:40;;;;;;;1999.90;999.90;;;13.10;99.90;;;;;;5041922;28;20173;-84
2021/05/20 13:14:27;;;;;;;1999.90;999.90;;;13.00;99.90;;;;;;5042453;28;20201;-84